Time;durP1;ratioP1;P1;durP2;ratioP2;P2;SDS_P1;SDS_P2;PMS_P1;PMS_P2;Temp;Humidity;BMP_temperature;BMP_pressure;BME280_temperature;BME280_humidity;BME280_pressure;Samples;Min_cycle;Max_cycle;Signal;HPM_P1;HPM_P2
2022/03/23 00:07:02;;;;;;;149.20;65.40;;;;;;;4.62;45.82;100255.38;432509;1270;98856;-41
2022/03/23 00:17:09;;;;;;;119.00;54.00;;;;;;;4.60;45.87;100247.08;432561;1271;108837;-43
2022/03/23 00:37:22;;;;;;;122.80;51.30;;;;;;;4.17;46.35;100239.65;432435;1271;112405;-41
2022/03/23 00:57:34;;;;;;;100.10;45.70;;;;;;;3.89;46.82;100211.14;432439;1271;99289;-41
2022/03/23 01:07:42;;;;;;;107.70;50.50;;;;;;;3.90;47.15;100208.73;432552;1270;113101;-42
2022/03/23 01:17:50;;;;;;;114.80;55.40;;;;;;;3.70;47.46;100204.06;432541;1271;108793;-41
2022/03/23 01:27:58;;;;;;;119.80;53.90;;;;;;;3.27;47.40;100202.52;432620;1270;99256;-42
2022/03/23 01:38:05;;;;;;;99.50;45.30;;;;;;;3.28;48.03;100184.46;432444;1270;108975;-44
2022/03/23 01:48:12;;;;;;;106.50;50.00;;;;;;;3.64;48.52;100181.95;432423;1271;99279;-42
2022/03/23 02:08:24;;;;;;;111.60;49.50;;;;;;;3.30;48.40;100172.32;432641;1271;99248;-42
2022/03/23 02:18:31;;;;;;;108.40;52.80;;;;;;;3.13;48.76;100166.08;432598;1271;98976;-41
2022/03/23 02:28:39;;;;;;;129.00;54.00;;;;;;;3.10;48.88;100159.77;432714;1271;112436;-42
2022/03/23 02:38:46;;;;;;;100.50;46.70;;;;;;;3.04;48.98;100158.96;433220;1259;108809;-44
2022/03/23 02:48:53;;;;;;;109.50;53.10;;;;;;;2.67;49.34;100157.54;432466;1271;99302;-42
2022/03/23 03:09:30;;;;;;;122.90;54.00;;;;;;;2.63;50.10;100151.77;432584;1271;99254;-42
2022/03/23 03:19:37;;;;;;;110.40;50.70;;;;;;;2.62;50.16;100150.10;432483;1271;112512;-41
2022/03/23 03:29:44;;;;;;;99.10;44.90;;;;;;;2.55;50.31;100144.83;432475;1271;108940;-41
2022/03/23 03:39:51;;;;;;;121.10;53.40;;;;;;;2.57;50.58;100148.67;432490;1271;99252;-41
2022/03/23 03:49:59;;;;;;;112.60;50.30;;;;;;;2.44;50.82;100140.57;432528;1271;112417;-41
2022/03/23 04:00:06;;;;;;;111.30;50.00;;;;;;;2.37;50.90;100139.52;432530;1271;108594;-41
2022/03/23 04:10:13;;;;;;;112.60;50.40;;;;;;;2.32;51.38;100131.24;432580;1271;99322;-40
2022/03/23 04:20:20;;;;;;;121.50;57.80;;;;;;;2.22;51.55;100130.31;432535;1271;112387;-41
2022/03/23 04:30:31;;;;;;;122.90;56.30;;;;;;;2.20;52.06;100129.16;432437;1271;108989;-42
2022/03/23 04:40:38;;;;;;;127.70;61.80;;;;;;;2.11;52.18;100126.94;432537;1271;99283;-45
2022/03/23 04:50:47;;;;;;;125.80;55.70;;;;;;;2.02;52.53;100121.70;432615;1270;112733;-41
2022/03/23 05:00:53;;;;;;;128.70;60.00;;;;;;;2.06;52.99;100128.75;432573;1270;109129;-39
2022/03/23 05:11:01;;;;;;;140.90;63.00;;;;;;;2.07;53.20;100127.43;432581;1271;98424;-41
2022/03/23 05:21:08;;;;;;;170.70;78.40;;;;;;;2.22;53.99;100123.36;432391;1271;112487;-42
2022/03/23 05:31:15;;;;;;;189.20;84.10;;;;;;;2.95;54.14;100122.83;432370;1271;108833;-40
2022/03/23 05:41:23;;;;;;;142.10;65.40;;;;;;;4.29;53.58;100122.34;432227;1271;99286;-41
2022/03/23 05:51:30;;;;;;;157.50;75.80;;;;;;;5.28;52.52;100108.52;432473;1271;112469;-41
2022/03/23 06:01:36;;;;;;;140.40;68.70;;;;;;;6.29;51.37;100106.19;432383;1271;108484;-41
2022/03/23 06:11:43;;;;;;;127.20;62.30;;;;;;;7.25;49.87;100102.03;432549;1271;97956;-42
2022/03/23 06:21:50;;;;;;;118.00;60.20;;;;;;;8.19;48.76;100107.13;432421;1271;112393;-41
2022/03/23 06:31:58;;;;;;;128.50;63.30;;;;;;;9.08;47.45;100102.86;432334;1271;108812;-41
2022/03/23 06:42:06;;;;;;;105.00;55.80;;;;;;;10.14;46.43;100104.13;432461;1271;99378;-41
2022/03/23 06:52:12;;;;;;;113.20;61.40;;;;;;;11.04;45.05;100110.78;432655;1271;111617;-42
2022/03/23 07:02:19;;;;;;;129.60;66.10;;;;;;;12.35;44.42;100113.55;432590;1271;108951;-43
2022/03/23 07:12:26;;;;;;;123.90;62.80;;;;;;;13.20;42.93;100109.44;432536;1271;99301;-41
2022/03/23 07:22:34;;;;;;;119.50;63.00;;;;;;;13.69;41.76;100099.14;432689;1271;112793;-40
2022/03/23 07:32:42;;;;;;;107.60;59.50;;;;;;;14.47;41.39;100100.21;432250;1271;109333;-41
2022/03/23 07:42:49;;;;;;;109.50;57.80;;;;;;;14.86;40.44;100092.00;432403;1271;99346;-44
2022/03/23 07:52:56;;;;;;;89.70;52.40;;;;;;;15.04;40.09;100088.67;432527;1271;109000;-41
2022/03/23 08:03:03;;;;;;;95.30;52.50;;;;;;;15.01;39.18;100077.77;432566;1271;98031;-41
2022/03/23 08:13:12;;;;;;;90.20;50.80;;;;;;;15.60;38.79;100075.98;432445;1271;112951;-40
2022/03/23 08:23:19;;;;;;;78.00;46.40;;;;;;;16.10;38.05;100073.84;432482;1271;108900;-45
2022/03/23 08:33:30;;;;;;;76.00;40.50;;;;;;;16.83;37.76;100077.54;432389;1271;99347;-41
2022/03/23 08:43:38;;;;;;;69.20;39.20;;;;;;;17.50;37.35;100075.41;432402;1271;109662;-41
2022/03/23 08:53:45;;;;;;;70.50;40.50;;;;;;;17.88;35.59;100068.73;432622;1270;99324;-40
2022/03/23 09:03:53;;;;;;;65.90;38.40;;;;;;;18.26;35.55;100063.39;432041;1271;366008;-40
2022/03/23 09:14:01;;;;;;;63.10;36.10;;;;;;;18.64;34.83;100063.04;432420;1271;108927;-41
2022/03/23 09:24:08;;;;;;;43.30;27.90;;;;;;;18.94;34.13;100057.59;432401;1271;99381;-40
2022/03/23 09:34:15;;;;;;;37.70;22.50;;;;;;;19.35;33.34;100054.90;432791;1271;108125;-43
2022/03/23 09:44:28;;;;;;;38.20;23.30;;;;;;;19.55;32.00;100042.14;432291;1272;99357;-40
2022/03/23 09:54:36;;;;;;;36.60;22.20;;;;;;;19.49;31.42;100039.59;432484;1272;112428;-41
2022/03/23 10:05:39;;;;;;;36.40;25.30;;;;;;;19.50;30.65;100026.08;431743;1274;109466;-41
2022/03/23 10:16:23;;;;;;;37.40;24.20;;;;;;;19.42;30.78;100014.57;432424;1272;99254;-41
2022/03/23 10:26:33;;;;;;;27.80;15.60;;;;;;;19.69;30.48;99998.41;432551;1272;109027;-42
2022/03/23 10:47:02;;;;;;;13.90;8.60;;;;;;;20.53;27.81;99970.73;432461;1272;112502;-40
2022/03/23 10:57:10;;;;;;;12.30;9.20;;;;;;;20.53;25.25;99951.75;432407;1272;109003;-40
2022/03/23 11:07:23;;;;;;;15.00;9.80;;;;;;;20.64;24.33;99937.66;432393;1272;99247;-42
2022/03/23 11:27:37;;;;;;;14.70;9.40;;;;;;;20.65;23.93;99908.81;432284;1272;99312;-41
2022/03/23 11:37:47;;;;;;;12.50;8.30;;;;;;;20.92;23.98;99892.73;432233;1272;112716;-40
2022/03/23 11:47:51;;;;;;;15.10;9.10;;;;;;;20.76;22.26;99881.52;432297;1272;108829;-42
2022/03/23 11:58:10;;;;;;;14.30;9.40;;;;;;;21.12;23.08;99868.89;432212;1272;99809;-41
2022/03/23 12:08:36;;;;;;;13.60;9.60;;;;;;;20.91;22.26;99847.73;432214;1272;108875;-40
2022/03/23 12:18:41;;;;;;;17.80;10.40;;;;;;;20.90;22.40;99846.71;432123;1272;99250;-42
2022/03/23 12:28:50;;;;;;;13.40;8.80;;;;;;;20.79;21.76;99834.82;432366;1272;112582;-42
2022/03/23 12:38:59;;;;;;;10.60;7.90;;;;;;;20.79;19.98;99823.35;432449;1272;109488;-43
2022/03/23 12:59:35;;;;;;;13.80;9.70;;;;;;;20.63;19.90;99800.55;432405;1272;109492;-41
2022/03/23 13:09:43;;;;;;;14.70;8.80;;;;;;;20.52;20.01;99781.77;432617;1271;99267;-41
2022/03/23 13:19:58;;;;;;;15.30;8.00;;;;;;;20.55;19.99;99767.59;432463;1272;112447;-41
2022/03/23 13:30:08;;;;;;;15.30;8.40;;;;;;;20.44;19.27;99758.08;432210;1272;108777;-41
2022/03/23 13:40:20;;;;;;;12.90;10.00;;;;;;;20.18;18.71;99748.86;432426;1272;99948;-43
2022/03/23 13:50:29;;;;;;;19.00;10.70;;;;;;;20.05;19.00;99733.36;432393;1272;109128;-41
2022/03/23 14:00:35;;;;;;;;;;;;;;;19.92;18.96;99723.57;432352;1272;99146;-45
2022/03/23 14:10:45;;;;;;;15.90;10.00;;;;;;;19.99;19.19;99720.14;432402;1272;112510;-41
2022/03/23 14:20:55;;;;;;;12.50;9.70;;;;;;;19.83;19.02;99704.20;432279;1272;108873;-42
2022/03/23 14:31:03;;;;;;;18.20;11.20;;;;;;;19.71;18.48;99686.14;432561;1272;98061;-40
2022/03/23 14:41:19;;;;;;;15.20;10.50;;;;;;;19.61;18.85;99676.81;432205;1272;108933;-42
2022/03/23 14:51:26;;;;;;;15.00;12.20;;;;;;;19.45;19.67;99669.61;432434;1272;98846;-41
2022/03/23 15:01:36;;;;;;;20.20;13.70;;;;;;;19.42;19.96;99659.61;432394;1272;112369;-41
2022/03/23 15:22:09;;;;;;;53.80;15.10;;;;;;;19.08;20.29;99641.01;432289;1272;99267;-40
2022/03/23 15:32:17;;;;;;;16.90;12.10;;;;;;;18.91;20.65;99629.39;433013;1271;108863;-41
2022/03/23 15:52:49;;;;;;;17.80;10.80;;;;;;;18.55;20.51;99616.65;432584;1271;112437;-43
2022/03/23 16:02:55;;;;;;;19.10;11.10;;;;;;;18.18;21.08;99613.38;432366;1271;108651;-42
2022/03/23 16:13:01;;;;;;;22.30;11.30;;;;;;;17.75;21.45;99606.55;432530;1271;99307;-41
2022/03/23 16:23:09;;;;;;;30.80;13.10;;;;;;;17.37;21.92;99602.15;432387;1271;107854;-45
2022/03/23 16:43:22;;;;;;;68.30;17.50;;;;;;;16.55;22.68;99612.71;432592;1271;112265;-42
2022/03/23 16:53:29;;;;;;;56.60;15.40;;;;;;;15.96;23.15;99606.73;432649;1271;107137;-43
2022/03/23 17:14:01;;;;;;;44.80;17.80;;;;;;;14.48;24.45;99617.16;432529;1271;108954;-46
2022/03/23 17:24:06;;;;;;;60.90;21.40;;;;;;;13.63;25.20;99616.77;432562;1272;100851;-41
2022/03/23 17:34:14;;;;;;;55.70;24.10;;;;;;;12.81;25.96;99618.62;432398;1271;112490;-40
2022/03/23 17:44:21;;;;;;;60.50;29.20;;;;;;;12.21;26.39;99620.63;432648;1271;108599;-41
2022/03/23 17:54:28;;;;;;;67.10;29.90;;;;;;;11.64;26.96;99619.02;432352;1272;99303;-45
2022/03/23 18:04:34;;;;;;;58.90;25.50;;;;;;;11.14;27.44;99608.55;432537;1271;107867;-41
2022/03/23 18:14:41;;;;;;;113.10;31.10;;;;;;;10.76;27.87;99609.92;432613;1271;99295;-42
2022/03/23 18:24:49;;;;;;;94.20;36.70;;;;;;;10.31;28.50;99614.94;432529;1271;112498;-42
2022/03/23 18:34:56;;;;;;;83.80;36.00;;;;;;;9.86;29.06;99615.27;432115;1271;109097;-42
2022/03/23 18:55:12;;;;;;;163.40;58.60;;;;;;;9.15;30.11;99617.13;432522;1271;112509;-41
2022/03/23 19:05:20;;;;;;;172.10;68.50;;;;;;;8.77;30.38;99611.69;432590;1271;108779;-41
2022/03/23 19:15:25;;;;;;;141.90;64.60;;;;;;;8.52;30.52;99609.46;432233;1272;99288;-41
2022/03/23 19:25:32;;;;;;;129.60;65.90;;;;;;;8.31;30.91;99610.46;432654;1271;99362;-42
2022/03/23 19:35:42;;;;;;;108.20;50.70;;;;;;;8.00;31.26;99604.60;432453;1271;106238;-43
2022/03/23 19:45:49;;;;;;;113.60;54.00;;;;;;;7.85;31.47;99603.48;432485;1271;98048;-42
2022/03/23 20:06:04;;;;;;;93.00;44.80;;;;;;;7.56;32.51;99604.27;432377;1272;108810;-41
2022/03/23 20:16:12;;;;;;;100.70;46.70;;;;;;;7.15;33.09;99602.19;432764;1271;99385;-41
2022/03/23 20:26:18;;;;;;;122.60;57.00;;;;;;;6.82;33.65;99599.82;432517;1271;111498;-42
2022/03/23 20:46:33;;;;;;;149.50;64.40;;;;;;;6.32;34.76;99602.27;432427;1271;97977;-42
2022/03/23 20:56:40;;;;;;;165.50;65.30;;;;;;;6.15;35.30;99611.02;432529;1271;112512;-44
2022/03/23 21:16:54;;;;;;;179.80;79.20;;;;;;;5.95;35.99;99621.55;432446;1270;99280;-41
2022/03/23 21:27:01;;;;;;;189.80;75.60;;;;;;;5.94;36.18;99625.21;432517;1271;111483;-42
2022/03/23 21:37:08;;;;;;;183.50;78.80;;;;;;;5.92;36.28;99618.78;432365;1271;108256;-42
2022/03/23 21:47:15;;;;;;;157.60;69.10;;;;;;;5.71;36.32;99613.80;432561;1272;99284;-40
2022/03/23 21:57:22;;;;;;;146.90;63.70;;;;;;;5.46;36.60;99614.95;432274;1273;99352;-42
2022/03/23 22:07:29;;;;;;;125.40;57.60;;;;;;;5.25;36.84;99612.83;432285;1273;112476;-43
2022/03/23 22:17:37;;;;;;;112.30;52.10;;;;;;;5.04;37.36;99606.73;432323;1273;109401;-41
2022/03/23 22:27:44;;;;;;;107.00;51.10;;;;;;;4.91;37.72;99604.27;432284;1273;98724;-42
2022/03/23 22:47:56;;;;;;;113.20;54.90;;;;;;;4.59;38.39;99613.05;432634;1271;108724;-41
2022/03/23 22:58:05;;;;;;;104.60;49.10;;;;;;;4.35;38.72;99608.12;432458;1271;99363;-41
2022/03/23 23:08:12;;;;;;;99.20;48.20;;;;;;;4.18;39.07;99608.59;432394;1271;112398;-41
2022/03/23 23:18:19;;;;;;;111.20;51.60;;;;;;;3.99;39.35;99609.61;432625;1271;108859;-43
2022/03/23 23:28:27;;;;;;;113.50;53.20;;;;;;;3.84;39.82;99603.52;432437;1269;99289;-41
2022/03/23 23:38:34;;;;;;;115.60;56.30;;;;;;;3.74;40.66;99604.26;432560;1271;107695;-42
2022/03/23 23:48:41;;;;;;;116.40;55.50;;;;;;;3.51;40.85;99602.95;432428;1271;99356;-43
2022/03/23 23:58:48;;;;;;;118.50;54.90;;;;;;;3.33;41.50;99603.52;432634;1271;112596;-42
